Tiempo atmosférico en la estación meteorológica de Llerena, Badajoz (655 m.)



Fecha
DESCASC
Temp. máxima en grados centígrados (hora)
DESCASC
Temp. mínima en grados centígrados (hora)
DESCASC
Temp. media en grados centígrados
DESCASC
Racha de viento máxima en m/sg (hora)
DESCASC
Velocidad máxima media en intervalos de 10 minutos(hora)
DESCASC
Precipitaciones diarias en mm
DESCASC
Precipitaciones de 00:00 a 06:00 en mm
DESCASC
Precipitaciones de 06:00 a 12:00 en mm
DESCASC
Precipitaciones de 12:00 a 18:00 en mm
DESCASC
Precipitaciones de 18:00 a 24:00 en mm
DESCASC
10-10-2019 31.5 (16:30) 16.1 (05:40) 23.8 8.33 (14:20) 6.39 (11:10) 0 0 0 0 0
09-10-2019 31.5 (14:50) 16.6 (07:40) 24.1 7.78 (16:40) 4.72 (16:40) 0 0 0 0 0
08-10-2019 33.6 (17:00) 19.4 (04:10) 26.5 8.06 (19:40) 5.83 (19:50) 0 0 0 0 0
07-10-2019 31.5 (17:20) 17 (08:30) 24.3 4.72 (00:40) 2.5 (00:30) 0 0 0 0 0
06-10-2019 29.5 (16:10) 14.2 (00:00) 21.8 6.39 (18:00) 3.61 (19:10) 0 0 0 0 0
05-10-2019 29.7 (15:30) 13.3 (00:00) 21.5 8.33 (16:50) 5 (17:00) 0 0 0 0 0
04-10-2019 28.9 (16:50) 14.7 (00:00) 21.8 6.94 (15:40) 4.72 (18:30) 0 0 0 0 0
03-10-2019 27.6 (15:40) 14.1 (00:00) 20.9 8.61 (16:30) 4.72 (18:00) 0 0 0 0 0
02-10-2019 26.2 (16:50) 10.7 (00:00) 18.5 9.44 (01:00) 6.39 (00:30) 0 0 0 0 0
01-10-2019 25.4 (14:40) 14.6 (00:00) 20 11.11 (16:00) 7.78 (17:20) 0 0 0 0 0
30-09-2019 32.7 (16:10) 17.9 (00:00) 25.3 8.61 (16:50) 5.83 (19:20) 0 0 0 0 0
29-09-2019 33.1 (17:30) 18.5 (00:00) 25.8 8.06 (15:10) 3.89 (19:10) 0 0 0 0 0
28-09-2019 32.5 (16:30) 15.3 (00:00) 23.9 7.78 (16:00) 5.28 (20:40) 0 0 0 0 0
27-09-2019 30.3 (16:10) 16.3 (00:00) 23.3 8.61 (16:50) 4.44 (16:50) 0 0 0 0 0
26-09-2019 30.6 (17:00) 14.3 (00:00) 22.5 6.11 (15:00) 3.61 (18:40) 0 0 0 0 0
25-09-2019 25.5 (17:20) 12.4 (00:00) 18.9 8.89 (01:40) 5.28 (01:40) 0 0 0 0 0
24-09-2019 30 (16:50) 14.3 (00:00) 22.2 8.89 (18:50) 5.83 (19:00) 0 0 0 0 0
23-09-2019 26.6 (16:40) 11.7 (00:00) 19.2 4.44 (17:00) 2.78 (11:50) 0 0 0 0 0
22-09-2019 21.7 (16:00) 13.2 (00:00) 17.5 11.67 (01:30) 8.61 (01:30) 4.4 3.4 1 0 0
21-09-2019 20.8 (18:40) 16.1 (00:00) 18.4 11.39 (22:10) 8.61 (08:50) 0.2 0 0 0.2 0
20-09-2019 25 (16:40) 17.6 (00:00) 21.3 10.83 (16:50) 6.67 (16:50) 0 0 0 0 0
19-09-2019 29.9 (16:40) 15.5 (00:00) 22.7 8.61 (21:40) 6.67 (21:20) 0 0 0 0 0
18-09-2019 28.9 (17:00) 18.7 (00:00) 23.8 8.89 (07:00) 6.67 (11:10) 0 0 0 0 0
17-09-2019 30.4 (15:20) 16.8 (00:00) 23.6 10.28 (16:50) 6.11 (21:10) 0 0 0 0 0
16-09-2019 27.9 (17:10) 19.4 (00:00) 23.6 7.22 (11:10) 5.83 (11:20) 0 0 0 0 0
15-09-2019 28.1 (16:30) 15.3 (00:00) 21.7 7.78 (16:40) 4.44 (17:00) 0 0 0 0 0
14-09-2019 25.5 (16:40) 14.6 (00:00) 20.1 10 (17:00) 6.94 (17:00) 0 0 0 0 0

Gráficas

Temp. máximas Temp. mínimas Temp. medias Precipitaciones Rachas de viento máximas Velocidades máximas media en intervalos de 10 minutos

Datos horarios

Fecha y hora oficial Temperatura (ºC) Velocidad del viento (km/h) Dirección del viento Racha (km/h) Dirección de racha Precipitación (mm) Presión (hPa) Tendencia (hPa) Humedad (%)
2019-10-13 23:00:00 20.6 15 Sudeste 24 Sudeste 0 939 -0.2 52
2019-10-13 22:00:00 20.8 15 Sur 23 Sudeste 0 938.9 -0.3 50
2019-10-13 21:00:00 21.4 15 Sudeste 21 Sur 0 939 -0.2 46
2019-10-13 20:00:00 22.8 10 Sudoeste 28 Sudoeste 0 939.2 -0.3 39
2019-10-13 19:00:00 24.5 20 Sur 39 Sur 0 939.2 -0.7 35
2019-10-13 18:00:00 25.7 22 Sur 37 Sur 0 939.2 -1 32
2019-10-13 17:00:00 26.3 23 Sudoeste 38 Sudoeste 0 939.5 -1.5 30
2019-10-13 16:00:00 25.7 18 Sur 32 Sudoeste 0 939.9 -1.6 38
2019-10-13 15:00:00 25.1 18 Sur 31 Sur 0 940.2 -1.2 37
2019-10-13 14:00:00 24.1 19 Sudoeste 33 Sudoeste 0 941 -0.9 40
2019-10-13 13:00:00 22.1 24 Sur 37 Sur 0 941.5 0 51
2019-10-13 12:00:00 20 27 Sur 39 Sudoeste 0 941.4 0.1 59
2019-10-13 11:00:00 18.1 19 Sur 36 Sudoeste 0 941.9 1.1 68
2019-10-13 10:00:00 16.4 23 Sudoeste 33 Sudoeste 0 941.5 0.7 74
2019-10-13 09:00:00 14.5 18 Sur 30 Sudoeste 0 941.3 1.2 77
2019-10-13 08:00:00 14.4 18 Sudoeste 32 Sur 0 940.8 0.7 77
2019-10-13 07:00:00 14.6 26 Sur 40 Sur 0 940.8 0.2 77
2019-10-13 06:00:00 15.2 27 Sur 38 Sur 0 940.1 -0.8 74
2019-10-13 05:00:00 15.9 27 Sur 36 Sur 0 940.1 -1.1 69
2019-10-13 04:00:00 15.1 22 Sur 31 Sudoeste 0 940.6 -0.5 83
2019-10-13 03:00:00 15.6 23 Sur 34 Sur 0 940.9 -0.3 87
2019-10-13 02:00:00 16.5 21 Sur 35 Sur 0 941.2 0.2 82
2019-10-13 01:00:00 17.6 29 Sur 37 Sur 0 941.1 0.4 80
2019-10-13 00:00:00 19.3 24 Sur 37 Sur 0 941.2 0.6 64
2019-10-12 23:00:00 19.8 23 Sur 34 Sudeste 0 941 0.6 65
2019-10-12 22:00:00 20.6 22 Sur 38 Sur 0 940.7 0.7 65
2019-10-12 21:00:00 21.7 24 Sur 35 Sur 0 940.6 0.8 59
2019-10-12 20:00:00 23 23 Sur 41 Sudoeste 0 940.4 0.3 56
2019-10-12 19:00:00 25.5 27 Sur 40 Sur 0 940 0 41
2019-10-12 18:00:00 28.3 23 Sur 37 Sudoeste 0 939.8 -1.1 26
2019-10-12 17:00:00 28.3 21 Sur -- -- 0 940.1 -1.4 25
2019-10-12 16:00:00 29.9 22 Sur -- -- 0 940 -1.8 20
2019-10-12 15:00:00 27.4 19 Sur 39 Sudoeste 0 940.9 -1 23
2019-10-12 14:00:00 29.1 20 Sur 34 Sur 0 941.5 -0.4 23
2019-10-12 13:00:00 28.2 24 Sudeste 41 Sur 0 941.8 0.5 24
2019-10-12 12:00:00 26.4 34 Sur 48 Sudeste 0 941.9 1.1 27
2019-10-12 11:00:00 24.1 30 Sur 41 Sur 0 941.9 1.2 31
2019-10-12 10:00:00 22.5 28 Sur 40 Sur 0 941.3 0.5 35
2019-10-12 09:00:00 21.2 27 Sur 35 Sudeste 0 940.8 -0.3 41
2019-10-12 08:00:00 22.1 23 Sur 30 Sur 0 940.7 -0.6 38
2019-10-12 07:00:00 23.2 19 Sur 28 Sur 0 940.8 -1.2 35
2019-10-12 06:00:00 23 20 Sur 34 Sur 0 941.1 -1.4 37
2019-10-12 05:00:00 22.2 25 Sudeste 37 Sur 0 941.3 -1.2 44
2019-10-12 04:00:00 22.3 24 Sur 32 Sur 0 942 -0.9 46
2019-10-12 03:00:00 22.7 19 Sur 30 Sur 0 942.5 -0.9 45
2019-10-12 02:00:00 22.8 23 Sur 33 Sur 0 942.5 -0.7 45
2019-10-12 01:00:00 22.9 23 Sur 32 Sur 0 942.9 -0.1 41
2019-10-12 00:00:00 22.6 23 Sur 35 Sur 0 943.4 0.8 42
2019-10-11 23:00:00 22.5 27 Sur 36 Sur 0 943.2 0.8 40
2019-10-11 22:00:00 22.7 24 Sur 37 Sur 0 943 0.3 34
2019-10-11 21:00:00 23.5 25 Sur 32 Sur 0 942.6 -0.1 33
2019-10-11 20:00:00 23.6 18 Sur 31 Sudoeste 0 942.4 -0.6 33
2019-10-11 19:00:00 24.3 16 Sudoeste 27 Sudoeste 0 942.7 -0.7 31
2019-10-11 18:00:00 24.9 19 Sur 30 Sudoeste 0 942.7 -0.8 31
2019-10-11 17:00:00 25.8 17 Sur 27 Sur 0 943 -1.3 28
2019-10-11 16:00:00 27.2 19 Sur 29 Sudoeste 0 943.4 -1.3 28
2019-10-11 15:00:00 26.4 11 Sudoeste 36 Sudoeste 0 943.5 -1.2 29
2019-10-11 14:00:00 26.1 19 Sudoeste 29 Sudoeste 0 944.3 -0.3 29
2019-10-11 13:00:00 27.4 16 Sur 30 Sudeste 0 944.7 0.7 30
2019-10-11 12:00:00 25.7 21 Sudeste 44 Sur 0 944.7 1.1 33
2019-10-11 11:00:00 21.9 35 Sur 47 Sur 0 944.6 1.3 42
2019-10-11 10:00:00 20.8 40 Sur 50 Sur 0 944 0.8 44
2019-10-11 09:00:00 19.8 31 Sur 42 Sur 0 943.6 0.6 50
2019-10-11 08:00:00 19 33 Sur 49 Sur 0 943.3 -0.2 58
2019-10-11 07:00:00 18.4 37 Sur 45 Sur 0 943.2 -0.6 69
2019-10-11 06:00:00 18.9 32 Sur 40 Sur 0 943 -0.9 64
2019-10-11 05:00:00 18.1 12 Sudeste 22 Sudeste 0 943.5 -0.5 62
2019-10-11 04:00:00 18.3 8 Oeste 10 Oeste 0 943.8 -0.3 58
2019-10-11 03:00:00 19.7 0 Calma 13 Sur 0 943.9 -0.2 52
2019-10-11 02:00:00 20.4 5 Noroeste 19 Sur 0 944 0.1 47
2019-10-11 01:00:00 21.7 9 Sur 22 Sudeste 0 944.1 0.4 43
2019-10-11 00:00:00 21.6 11 Sur 16 Sur 0 944.1 0.8 45
2019-10-10 23:00:00 22.3 5 Sudeste 9 Sudoeste 0 943.9 1.1 43
2019-10-10 22:00:00 24.1 4 Sur 11 Noroeste 0 943.7 1 41
2019-10-10 21:00:00 25.3 11 Sudoeste 25 Sur 0 943.3 0.7 39
2019-10-10 20:00:00 26.6 11 Sur 18 Sur 0 942.8 0.1 33
2019-10-10 19:00:00 29.4 11 Sur 19 Sudoeste 0 942.7 -0.1 28
2019-10-10 18:00:00 30.9 9 Sudoeste 19 Sudoeste 0 942.6 -0.5 25
2019-10-10 17:00:00 31.3 11 Sur 22 Sudoeste 0 942.7 -1.1 24
2019-10-10 16:00:00 31.2 14 Sudoeste 25 Sudoeste 0 942.8 -1.4 25
2019-10-10 15:00:00 30.9 11 Sur 30 Sur 0 943.1 -1 25
2019-10-10 14:00:00 29.5 16 Sur 28 Sudoeste 0 943.8 0 27
2019-10-10 13:00:00 28.3 16 Sudoeste 28 Sur 0 944.2 0.8 28
2019-10-10 12:00:00 27.1 19 Sur 29 Sur 0 944.1 1.1 30
2019-10-10 11:00:00 26.7 20 Sur 27 Sur 0 943.8 1.3 30
2019-10-10 10:00:00 23.7 4 Este 12 Sur 0 943.4 1 29
2019-10-10 09:00:00 19.2 7 Nordeste 11 Este 0 943 0.6 30
2019-10-10 08:00:00 21.8 6 Este 14 Sudeste 0 942.5 0.1 29
2019-10-10 07:00:00 17.2 13 Sudeste 15 Sudeste 0 942.4 -0.2 28
2019-10-10 06:00:00 17.2 9 Este 10 Este 0 942.4 -0.5 30
2019-10-10 05:00:00 17.8 5 Norte 9 Norte 0 942.4 -0.6 31
2019-10-10 04:00:00 17.7 2 Sudeste 4 Nordeste 0 942.6 -0.7 30
2019-10-10 03:00:00 18.5 2 Noroeste 5 Sur 0 942.9 -0.4 30
2019-10-10 02:00:00 18.5 3 Sudeste 8 Norte 0 943 -0.1 33
2019-10-10 01:00:00 19.1 4 Oeste 12 Norte 0 943.3 0.4 36
2019-10-10 00:00:00 20.2 3 Norte 11 Noroeste 0 943.3 0.8 38
2019-10-09 23:00:00 21.4 6 Noroeste 12 Noroeste 0 943.1 1.1 42
2019-10-09 22:00:00 22.2 8 Noroeste 15 Noroeste 0 942.9 1.1 42
2019-10-09 21:00:00 23.6 8 Noroeste 15 Noroeste 0 942.5 0.8 40
2019-10-09 20:00:00 25.7 10 Norte 21 Norte 0 942 0.2 39
2019-10-09 19:00:00 27.7 11 Norte 26 Noroeste 0 941.8 -0.3 36
2019-10-09 18:00:00 28.9 13 Noroeste 26 Norte 0 941.7 -0.5 34
2019-10-09 17:00:00 29.6 14 Norte 28 Norte 0 941.8 -1.1 33
2019-10-09 16:00:00 30.9 14 Noroeste 24 Noroeste 0 942.1 -1.4 29
2019-10-09 15:00:00 30.7 4 Este 17 Sudoeste 0 942.2 -1.6 28
2019-10-09 14:00:00 29.2 10 Oeste 15 Oeste 0 942.9 -0.7 28
2019-10-09 13:00:00 25.6 4 Noroeste 11 Noroeste 0 943.5 0.6 46
2019-10-09 12:00:00 22.1 6 Norte 17 Norte 0 943.8 1.5 60
2019-10-09 11:00:00 20.7 10 Norte 17 Norte 0 943.6 1.2 66
2019-10-09 10:00:00 21.7 3 Norte 5 Norte 0 942.9 0.7 59
2019-10-09 09:00:00 17.7 3 Sudoeste 12 Noroeste 0 942.3 0.5 78
2019-10-09 08:00:00 16.8 6 Oeste 12 Noroeste 0 942.4 0.7 79
2019-10-09 07:00:00 17.5 5 Noroeste 17 Noroeste 0 942.2 0.1 69
2019-10-09 06:00:00 20.5 5 Noroeste 12 Noroeste 0 941.8 -0.9 59
2019-10-09 05:00:00 20.9 7 Oeste 11 Oeste 0 941.7 -1.4 57
2019-10-09 04:00:00 20.2 3 Sudoeste 9 Oeste 0 942.1 -1.1 58
2019-10-09 03:00:00 20.6 8 Oeste 11 Oeste 0 942.7 -0.8 53
2019-10-09 02:00:00 21.2 8 Oeste 10 Oeste 0 943.1 0.1 51
2019-10-09 01:00:00 21.7 7 Oeste 10 Oeste 0 943.2 0.4 44
2019-10-09 00:00:00 22.5 4 Oeste 15 Sudoeste 0 943.5 1.1 32
2019-10-08 23:00:00 24.1 7 Sudoeste 13 Sudoeste 0 943 0.9 32
2019-10-08 22:00:00 25.6 7 Sudoeste 23 Oeste 0 942.8 1 29
2019-10-08 21:00:00 26.6 14 Sudoeste 27 Sur 0 942.4 0.5 29
2019-10-08 20:00:00 28.3 21 Sur 29 Sur 0 942.1 0 25
2019-10-08 19:00:00 31.4 15 Sudoeste 19 Sudoeste 0 941.8 -0.8 19
2019-10-08 18:00:00 33.1 5 Oeste 18 Sudoeste 0 941.9 -1.1 17
2019-10-08 17:00:00 33.5 8 Oeste 14 Oeste 0 942.1 -1.6 17
2019-10-08 16:00:00 33.5 5 Oeste 18 Noroeste 0 942.6 -1.6 16
2019-10-08 15:00:00 32.3 11 Noroeste 20 Noroeste 0 943 -1.5 18
2019-10-08 14:00:00 32.2 8 Sudoeste 21 Sudoeste 0 943.7 -0.8 18
2019-10-08 13:00:00 31 14 Sudoeste 23 Sudoeste 0 944.2 0.1 19
2019-10-08 12:00:00 29.9 13 Sur 21 Sudoeste 0 944.5 0.7 21
2019-10-08 11:00:00 28.3 5 Sur 14 Nordeste 0 944.5 1.1 24
2019-10-08 10:00:00 25.9 4 Este 10 Este 0 944.1 1 27
2019-10-08 09:00:00 22.4 4 Oeste 15 Sudeste 0 943.8 0.8 31
2019-10-08 08:00:00 21.2 13 Sudeste 15 Sudeste 0 943.4 0.2 32
2019-10-08 07:00:00 21.7 7 Sudeste 14 Este 0 943.1 -0.4 31
2019-10-08 06:00:00 22 10 Este 15 Sudeste 0 943 -0.9 30
2019-10-08 05:00:00 21.7 10 Este 13 Este 0 943.2 -0.7 31
2019-10-08 04:00:00 19.5 10 Sudeste 13 Sudeste 0 943.5 -0.5 34
2019-10-08 03:00:00 20.4 7 Este 10 Sudeste 0 943.9 -0.4 31
2019-10-08 02:00:00 21.1 4 Sudeste 9 Nordeste 0 943.9 -0.3 30
2019-10-08 01:00:00 21 5 Sudeste 9 Sudeste 0 944 0 31
2019-10-08 00:00:00 21.8 6 Sudeste 8 Sudeste 0 944.3 0.7 26
2019-10-07 23:00:00 22.7 2 Este 6 Norte 0 944.2 0.6 23
2019-10-07 22:00:00 23.8 4 Norte 12 Noroeste 0 944 0.6 22
2019-10-07 21:00:00 24.9 6 Noroeste 15 Norte 0 943.6 0.2 22
2019-10-07 20:00:00 27.8 8 Norte 15 Norte 0 943.6 0 19
2019-10-07 19:00:00 30 6 Norte 13 Nordeste 0 943.4 -0.3 17
2019-10-07 18:00:00 30.9 6 Norte 15 Nordeste 0 943.4 -0.7 15
2019-10-07 17:00:00 31.1 6 Nordeste 12 Nordeste 0 943.6 -1.1 14
2019-10-07 16:00:00 30.2 6 Norte 15 Norte 0 943.7 -1.4 14
2019-10-07 15:00:00 29.4 6 Norte 14 Nordeste 0 944.1 -1 17
2019-10-07 14:00:00 28.5 6 Norte 11 Norte 0 944.7 -0.3 15
2019-10-07 13:00:00 26.7 6 Norte 10 Norte 0 945.1 0.6 20
2019-10-07 12:00:00 24.8 7 Este 14 Este 0 945.1 0.9 26
2019-10-07 11:00:00 21.8 3 Nordeste 9 Norte 0 945 0.8 38
2019-10-07 10:00:00 20 4 Norte 12 Noroeste 0 944.5 0.7 41
2019-10-07 09:00:00 17.9 2 Oeste 9 Noroeste 0 944.2 0.4 44
2019-10-07 08:00:00 17.2 4 Oeste 11 Noroeste 0 944.2 0.5 43
2019-10-07 07:00:00 17.1 5 Sudoeste 8 Oeste 0 943.8 -0.5 42
2019-10-07 06:00:00 17.8 8 Oeste 10 Oeste 0 943.8 -1 43
2019-10-07 05:00:00 17.7 5 Oeste 10 Oeste 0 943.7 -1.4 44
2019-10-07 04:00:00 17.8 5 Oeste 14 Noroeste 0 944.3 -1.2 46
2019-10-07 03:00:00 18.5 9 Noroeste 14 Noroeste 0 944.8 -0.8 46
2019-10-07 02:00:00 19 6 Noroeste 13 Noroeste 0 945.1 -0.4 46
2019-10-07 01:00:00 20 8 Noroeste 17 Noroeste 0 945.5 0.4 33
2019-10-07 00:00:00 20.7 7 Noroeste 10 Noroeste 0 945.6 0.6 31
2019-10-06 23:00:00 20.6 8 Noroeste 10 Noroeste 0 945.5 0.9 30
2019-10-06 22:00:00 21.1 6 Noroeste 10 Noroeste 0 945.1 0.6 26
2019-10-06 21:00:00 22.5 9 Norte 16 Norte 0 945 0.5 25
2019-10-06 20:00:00 24.9 11 Norte 22 Noroeste 0 944.6 0 25
2019-10-06 19:00:00 27.4 12 Norte 20 Norte 0 944.5 -0.4 22
2019-10-06 18:00:00 28.7 13 Norte 23 Noroeste 0 944.5 -0.8 21
2019-10-06 17:00:00 29 9 Norte 20 Noroeste 0 944.6 -1 18
2019-10-06 16:00:00 29.4 7 Noroeste 22 Noroeste 0 944.9 -0.8 14
2019-10-06 15:00:00 28.1 6 Norte 16 Nordeste 0 945.3 -0.6 22
2019-10-06 14:00:00 27.2 4 Nordeste 12 Nordeste 0 945.6 -0.2 22
2019-10-06 13:00:00 26.2 4 Norte 11 Nordeste 0 945.7 0.6 28
2019-10-06 12:00:00 24.3 5 Nordeste 13 Norte 0 945.9 1.4 34
2019-10-06 11:00:00 22.9 6 Norte 11 Norte 0 945.8 1.9 37
2019-10-06 10:00:00 21.7 3 Este 7 Sudeste 0 945.1 1.2 40
2019-10-06 09:00:00 15.9 6 Sudeste 9 Sudeste 0 944.5 0.4 53
2019-10-06 08:00:00 14.6 7 Sudeste 9 Sudeste 0 943.9 0.2 53
2019-10-06 07:00:00 15.6 2 Norte 10 Sur 0 943.9 0.2 52
2019-10-06 06:00:00 15.3 5 Noroeste 10 Noroeste 0 944.1 -0.3 56
2019-10-06 05:00:00 15.3 5 Sudoeste 9 Sudoeste 0 943.7 -0.7 57
2019-10-06 04:00:00 14.9 6 Sudoeste 11 Noroeste 0 943.7 -0.3 59
2019-10-06 03:00:00 15.7 8 Noroeste 17 Noroeste 0 944.4 0.4 57
2019-10-06 02:00:00 16.4 8 Noroeste 13 Noroeste 0 944.4 0.6 55
2019-10-06 01:00:00 17.6 5 Noroeste 9 Noroeste 0 944 0.3 53
2019-10-06 00:00:00 18.1 4 Sudoeste 8 Oeste 0 944 0.9 51
2019-10-05 23:00:00 18.3 4 Oeste 11 Noroeste 0 943.8 0.9 48
2019-10-05 22:00:00 19.1 7 Noroeste 12 Noroeste 0 943.7 1.3 43
2019-10-05 21:00:00 20.6 9 Noroeste 18 Noroeste 0 943.1 0.7 36
2019-10-05 20:00:00 23.2 11 Norte 21 Norte 0 942.9 0.7 32
2019-10-05 19:00:00 26.1 13 Noroeste 21 Noroeste 0 942.4 0.3 27
2019-10-05 18:00:00 25.6 16 Noroeste 22 Noroeste 0 942.4 0 22
2019-10-05 17:00:00 27.6 18 Noroeste 30 Noroeste 0 942.2 -0.8 26
2019-10-05 16:00:00 28 13 Noroeste 24 Noroeste 0 942.1 -1.1 26
2019-10-05 15:00:00 27.3 9 Noroeste 15 Noroeste 0 942.4 -0.7 30
2019-10-05 14:00:00 27.6 9 Sudoeste 16 Sudoeste 0 943 0 30
2019-10-05 13:00:00 26.2 8 Sudoeste 20 Sudoeste 0 943.2 0.6 37
2019-10-05 12:00:00 23.7 4 Sudeste 11 Nordeste 0 943.1 1 48
2019-10-05 11:00:00 21.3 4 Este 8 Este 0 943 1.2 56
2019-10-05 10:00:00 18.9 2 Oeste 5 Oeste 0 942.6 0.9 65
2019-10-05 09:00:00 14.6 0 Calma 5 Sudeste 0 942.1 0.3 81
2019-10-05 08:00:00 13.8 3 Oeste 6 Sudoeste 0 941.8 -0.2 82
2019-10-05 07:00:00 14.1 4 Oeste 6 Sudoeste 0 941.7 -0.7 81
2019-10-05 06:00:00 13.8 3 Sudoeste 8 Noroeste 0 941.8 -0.9 80
2019-10-05 05:00:00 14.6 5 Noroeste 10 Noroeste 0 942 -0.5 78
2019-10-05 04:00:00 15 5 Noroeste 9 Noroeste 0 942.4 -0.3 76
2019-10-05 03:00:00 16 5 Noroeste 12 Noroeste 0 942.7 0 72
2019-10-05 02:00:00 17.5 8 Noroeste 13 Noroeste 0 942.5 -0.3 66
2019-10-05 01:00:00 18.1 6 Oeste 12 Oeste 0 942.7 0 62
2019-10-05 00:00:00 19.1 8 Sudoeste 10 Sudoeste 0 942.7 0.2 58
2019-10-04 23:00:00 19.6 9 Oeste 11 Oeste 0 942.8 0.6 54
2019-10-04 22:00:00 20.3 8 Sudoeste 14 Oeste 0 942.7 0.8 51
2019-10-04 21:00:00 21.8 8 Oeste 15 Norte 0 942.5 0.6 48
2019-10-04 20:00:00 24.1 10 Norte 19 Oeste 0 942.2 0.2 44
2019-10-04 19:00:00 26.3 14 Noroeste 23 Noroeste 0 941.9 -0.5 34
2019-10-04 18:00:00 28 10 Noroeste 23 Oeste 0 941.9 -1.1 33
2019-10-04 17:00:00 28.4 9 Noroeste 23 Noroeste 0 942 -1.7 32
2019-10-04 16:00:00 28.4 12 Oeste 25 Sudoeste 0 942.4 -1.6 31
2019-10-04 15:00:00 27.8 6 Sudoeste 21 Oeste 0 943 -1.3 31
2019-10-04 14:00:00 26.2 15 Oeste 25 Oeste 0 943.7 -0.7 37
2019-10-04 13:00:00 25.1 12 Sudoeste 24 Sudoeste 0 944 -0.2 39
2019-10-04 12:00:00 22.5 4 Nordeste 10 Noroeste 0 944.3 0.4 51
2019-10-04 11:00:00 20.2 6 Oeste 12 Oeste 0 944.4 1 64
2019-10-04 10:00:00 17.6 2 Oeste 12 Oeste 0 944.2 0.7 74
2019-10-04 09:00:00 15.2 11 Oeste 16 Oeste 0 943.9 0.3 84
2019-10-04 08:00:00 15 4 Sur 14 Sudoeste 0 943.4 -0.4 83
2019-10-04 07:00:00 14.9 12 Sudoeste 16 Sudoeste 0 943.5 -0.6 82
2019-10-04 06:00:00 15.3 12 Sudoeste 15 Sudoeste 0 943.6 -0.9 76
2019-10-04 05:00:00 15.4 10 Oeste 13 Oeste 0 943.8 -1 69
2019-10-04 04:00:00 15.9 8 Oeste 12 Noroeste 0 944.1 -0.9 76
2019-10-04 03:00:00 16.6 8 Noroeste 12 Noroeste 0 944.5 -0.3 69
2019-10-04 02:00:00 17.2 8 Oeste 13 Noroeste 0 944.8 -0.1 56
2019-10-04 01:00:00 18.1 8 Oeste 15 Noroeste 0 945 0.3 42
2019-10-04 00:00:00 19.3 6 Oeste 12 Noroeste 0 944.8 0.2 26
2019-10-03 23:00:00 18.9 5 Oeste 14 Noroeste 0 944.9 0.4 28
2019-10-03 22:00:00 20.4 7 Noroeste 13 Noroeste 0 944.7 0.4 29
2019-10-03 21:00:00 21.3 6 Noroeste 14 Noroeste 0 944.6 0.2 28
2019-10-03 20:00:00 23.6 10 Noroeste 23 Noroeste 0 944.5 -0.1 24
2019-10-03 19:00:00 25.9 15 Noroeste 31 Noroeste 0 944.3 -0.4 22
2019-10-03 18:00:00 27.2 17 Noroeste 26 Noroeste 0 944.4 -0.6 18
2019-10-03 17:00:00 26.5 12 Norte 31 Norte 0 944.6 -1 20
2019-10-03 16:00:00 27.6 14 Noroeste 27 Noroeste 0 944.7 -1.3 17
2019-10-03 15:00:00 26.1 12 Noroeste 23 Noroeste 0 945 -0.9 21
2019-10-03 14:00:00 26 14 Noroeste 24 Noroeste 0 945.6 -0.1 21
2019-10-03 13:00:00 24.7 12 Noroeste 20 Noroeste 0 946 0.8 27
2019-10-03 12:00:00 23.2 10 Noroeste 16 Oeste 0 945.9 1.1 33
2019-10-03 11:00:00 21.1 6 Noroeste 11 Oeste 0 945.7 1.3 41
2019-10-03 10:00:00 17.7 7 Sudoeste 13 Noroeste 0 945.2 0.8 53
2019-10-03 09:00:00 15.1 5 Oeste 11 Noroeste 0 944.8 0.7 58
2019-10-03 08:00:00 14.5 9 Noroeste 14 Oeste 0 944.4 0.3 58
2019-10-03 07:00:00 14.9 9 Oeste 13 Oeste 0 944.4 0 56
2019-10-03 06:00:00 14.5 7 Oeste 13 Oeste 0 944.1 -0.2 58
2019-10-03 05:00:00 14.7 11 Oeste 13 Sudoeste 0 944.1 -0.6 55
2019-10-03 04:00:00 15.6 10 Sudoeste 12 Oeste 0 944.4 -0.4 51
2019-10-03 03:00:00 15.9 7 Sudoeste 16 Oeste 0 944.3 -0.4 53
2019-10-03 02:00:00 16.2 10 Oeste 14 Sudoeste 0 944.7 0 49
2019-10-03 01:00:00 16.5 9 Oeste 16 Noroeste 0 944.8 0.5 43
2019-10-03 00:00:00 17.8 13 Noroeste 19 Noroeste 0 944.7 0.7 37
2019-10-02 23:00:00 18.9 11 Noroeste 18 Noroeste 0 944.7 1 33
2019-10-02 22:00:00 19.1 6 Noroeste 15 Noroeste 0 944.3 0.8 31
2019-10-02 21:00:00 20.2 10 Noroeste 21 Noroeste 0 944 0.5 30
2019-10-02 20:00:00 22.4 15 Noroeste 24 Noroeste 0 943.7 -0.1 25
2019-10-02 19:00:00 24.8 15 Noroeste 26 Noroeste 0 943.5 -0.5 20
2019-10-02 18:00:00 25.6 15 Noroeste 28 Noroeste 0 943.5 -0.6 18
2019-10-02 17:00:00 25.6 12 Norte 25 Noroeste 0 943.8 -0.8 20
2019-10-02 16:00:00 25.5 15 Noroeste 27 Noroeste 0 944 -0.7 19
2019-10-02 15:00:00 24.6 13 Noroeste 28 Noroeste 0 944.1 -0.6 26
2019-10-02 14:00:00 21.9 13 Noroeste 24 Noroeste 0 944.6 0.3 38
2019-10-02 13:00:00 21.4 12 Noroeste 22 Noroeste 0 944.7 1.2 39
2019-10-02 12:00:00 19.5 13 Noroeste 21 Noroeste 0 944.7 1.4 46
2019-10-02 11:00:00 16.8 12 Noroeste 19 Oeste 0 944.3 1.2 62
2019-10-02 10:00:00 14 8 Oeste 12 Noroeste 0 943.5 0.6 79
2019-10-02 09:00:00 11.4 4 Oeste 12 Noroeste 0 943.3 0.3 89
2019-10-02 08:00:00 10.8 5 Noroeste 15 Noroeste 0 943.1 0.3 90
2019-10-02 07:00:00 10.9 5 Noroeste 19 Noroeste 0 942.9 -0.5 88
2019-10-02 06:00:00 11.6 5 Noroeste 15 Noroeste 0 943 -0.8 84
2019-10-02 05:00:00 12.3 9 Oeste 23 Noroeste 0 942.8 -1.4 80
2019-10-02 04:00:00 13.4 15 Noroeste 24 Noroeste 0 943.4 -0.6 73
2019-10-02 03:00:00 14.3 12 Noroeste 22 Noroeste 0 943.8 -0.2 76
2019-10-02 02:00:00 15.6 15 Noroeste 31 Noroeste 0 944.2 0.7 72
2019-10-02 01:00:00 17 22 Noroeste 34 Noroeste 0 944 0.9 64
2019-10-02 00:00:00 18.2 22 Noroeste 33 Noroeste 0 944 1 57
2019-10-01 23:00:00 19.4 22 Noroeste 32 Noroeste 0 943.5 0.9 51
2019-10-01 22:00:00 19.4 12 Oeste 26 Noroeste 0 943.1 0.8 49
2019-10-01 21:00:00 20.7 17 Noroeste 34 Noroeste 0 943 0.7 46
2019-10-01 20:00:00 21.9 20 Noroeste 37 Noroeste 0 942.6 0.4 45
2019-10-01 19:00:00 23.5 24 Noroeste 39 Noroeste 0 942.3 -0.2 41
2019-10-01 18:00:00 24.7 22 Noroeste 39 Noroeste 0 942.3 -0.3 38
2019-10-01 17:00:00 24.3 24 Noroeste 38 Noroeste 0 942.2 -0.6 39
2019-10-01 16:00:00 24.8 22 Noroeste 40 Noroeste 0 942.5 -0.4 38
2019-10-01 15:00:00 24.9 22 Noroeste 35 Noroeste 0 942.6 -0.5 33
2019-10-01 14:00:00 24.7 23 Noroeste 38 Noroeste 0 942.8 0.2 36
2019-10-01 13:00:00 23.3 21 Noroeste 34 Noroeste 0 942.9 1 44
2019-10-01 12:00:00 21.2 20 Noroeste 30 Noroeste 0 943.1 1.7 52
2019-10-01 11:00:00 18.2 18 Oeste 26 Oeste 0 942.6 1.4 66
2019-10-01 10:00:00 17 18 Oeste 26 Oeste 0 941.9 0.8 73
2019-10-01 09:00:00 15.1 13 Oeste 19 Oeste 0 941.4 0.5 69
2019-10-01 08:00:00 15.4 9 Oeste 15 Oeste 0 941.2 0.7 64
2019-10-01 07:00:00 16.3 9 Oeste 17 Oeste 0 941.1 -0.3 57
2019-10-01 06:00:00 17.6 10 Sudoeste 16 Oeste 0 940.9 -1 50
2019-10-01 05:00:00 18.5 10 Sudoeste 12 Sudoeste 0 940.5 -1.5 43
2019-10-01 04:00:00 18.2 10 Sudoeste 15 Sudoeste 0 941.4 -0.6 44
2019-10-01 03:00:00 18.6 10 Sudoeste 18 Sudoeste 0 941.9 0 43
2019-10-01 02:00:00 19.5 9 Sudoeste 16 Sudoeste 0 942 0.1 40
2019-10-01 01:00:00 20.8 7 Sudoeste 14 Sudoeste 0 942 0.1 39
2019-10-01 00:00:00 22.5 13 Sudoeste 15 Sudoeste 0 941.9 0.4 33
2019-09-30 23:00:00 23.6 13 Sudoeste 22 Sur 0 941.9 0.5 32
2019-09-30 22:00:00 24.7 17 Sur 22 Sur 0 941.9 0.6 31
2019-09-30 21:00:00 25.4 12 Sudoeste 21 Sur 0 941.5 -0.1 29
2019-09-30 20:00:00 27.8 16 Sudoeste 29 Sur 0 941.4 -0.4 24
2019-09-30 19:00:00 30.1 17 Sur 27 Sudoeste 0 941.3 -0.8 19
2019-09-30 18:00:00 31.7 17 Sur 31 Sur 0 941.6 -1.3 13
2019-09-30 17:00:00 32.6 13 Sudoeste 31 Sur 0 941.8 -1.8 13
2019-09-30 16:00:00 32.6 10 Sudoeste 20 Sudoeste 0 942.1 -1.9 13
2019-09-30 15:00:00 31.6 10 Sudoeste 23 Sudoeste 0 942.9 -1.2 13
2019-09-30 14:00:00 30.9 10 Oeste 19 Sudoeste 0 943.6 -0.5 15
2019-09-30 13:00:00 29.7 9 Sur 18 Sudoeste 0 944 0.2 18
2019-09-30 12:00:00 29 10 Sudoeste 15 Sudoeste 0 944.1 0.7 18
2019-09-30 11:00:00 28 3 Sudeste 6 Oeste 0 944.1 0.9 15
2019-09-30 10:00:00 25.9 0 Calma 4 Sudeste 0 943.8 0.8 22
2019-09-30 09:00:00 19.6 3 Sur 5 Sur 0 943.4 0.4 35
2019-09-30 08:00:00 18.1 3 Sur 5 Oeste 0 943.2 0 48
2019-09-30 07:00:00 18.5 5 Oeste 8 Oeste 0 943 -0.7 52
2019-09-30 06:00:00 18.6 7 Oeste 9 Oeste 0 943 -1 50
2019-09-30 05:00:00 19.5 5 Oeste 9 Oeste 0 943.2 -1 37
2019-09-30 04:00:00 19.8 3 Oeste 7 Oeste 0 943.7 -0.6 28
2019-09-30 03:00:00 20.2 5 Oeste 9 Noroeste 0 944 -0.3 23
2019-09-30 02:00:00 20.8 4 Noroeste 9 Noroeste 0 944.2 -0.1 25
2019-09-30 01:00:00 21.3 3 Oeste 7 Noroeste 0 944.3 0.1 31
2019-09-30 00:00:00 21.8 4 Sudoeste 5 Sudoeste 0 944.3 0.9 30
2019-09-29 23:00:00 22.7 3 Noroeste 6 Noroeste 0 944.3 1.2 30
2019-09-29 22:00:00 23.5 3 Oeste 8 Norte 0 944.2 1.3 29
2019-09-29 21:00:00 24.9 4 Este 13 Noroeste 0 943.4 0.4 28
2019-09-29 20:00:00 27.7 10 Noroeste 21 Noroeste 0 943.1 -0.2 23
2019-09-29 19:00:00 29.9 14 Norte 21 Norte 0 942.9 -0.7 18
2019-09-29 18:00:00 32.4 9 Oeste 18 Sudoeste 0 943 -1.2 13
2019-09-29 17:00:00 32.7 9 Sudoeste 23 Sudoeste 0 943.3 -1.8 13
2019-09-29 16:00:00 32.2 11 Oeste 29 Sudoeste 0 943.6 -1.4 14
2019-09-29 15:00:00 31.7 4 Sudoeste 21 Sudoeste 0 944.2 -1 15
2019-09-29 14:00:00 30.6 10 Oeste 21 Sudoeste 0 945.1 0 14
2019-09-29 13:00:00 29.8 14 Sudoeste 20 Sudoeste 0 945 0.4 14
2019-09-29 12:00:00 27.2 6 Este 11 Este 0 945.2 1.1 24
2019-09-29 11:00:00 25.7 5 Nordeste 8 Este 0 945.1 1.2 25
2019-09-29 10:00:00 24.5 2 Este 4 Este 0 944.6 0.8 27
2019-09-29 09:00:00 19.9 3 Sur 5 Oeste 0 944.1 0.4 37
2019-09-29 08:00:00 19 5 Oeste 5 Oeste 0 943.9 0.1 38
2019-09-29 07:00:00 18.9 3 Sudoeste 7 Oeste 0 943.8 -0.3 38
2019-09-29 06:00:00 18.9 6 Sudoeste 7 Sudoeste 0 943.7 -0.7 38
2019-09-29 05:00:00 19.9 4 Oeste 7 Sudoeste 0 943.8 -0.5 36
2019-09-29 04:00:00 20.1 5 Oeste 9 Noroeste 0 944.1 -0.4 35
2019-09-29 03:00:00 20.3 9 Sudoeste 13 Oeste 0 944.4 -0.3 32
2019-09-29 02:00:00 21.1 9 Oeste 12 Oeste 0 944.3 -0.2 31
2019-09-29 01:00:00 21.8 8 Sudoeste 14 Oeste 0 944.5 0.3 32
2019-09-29 00:00:00 22.6 12 Sudoeste 17 Sudoeste 0 944.7 1 33
2019-09-28 23:00:00 23.7 8 Oeste 13 Oeste 0 944.5 1 29
2019-09-28 22:00:00 25.2 15 Sudoeste 23 Sur 0 944.2 0.7 23
2019-09-28 21:00:00 26.5 17 Sur 24 Sur 0 943.7 0.2 21
2019-09-28 20:00:00 28.4 13 Sur 19 Sudoeste 0 943.5 -0.3 20
2019-09-28 19:00:00 30.8 12 Sur 23 Sudoeste 0 943.5 -0.5 16
2019-09-28 18:00:00 31.9 8 Sur 18 Sudoeste 0 943.5 -1.1 15
2019-09-28 17:00:00 32.1 13 Sur 26 Sudoeste 0 943.8 -1.4 14
2019-09-28 16:00:00 31.9 17 Sudoeste 28 Sudoeste 0 944 -1.7 16
2019-09-28 15:00:00 31.4 10 Sudeste 19 Sur 0 944.6 -1.4 18
2019-09-28 14:00:00 30.9 8 Sudoeste 19 Este 0 945.2 -0.6 20
2019-09-28 13:00:00 29 8 Este 18 Este 0 945.7 0.2 22
2019-09-28 12:00:00 27.5 12 Este 18 Este 0 946 0.9 23
2019-09-28 11:00:00 25.9 13 Este 18 Este 0 945.8 1.1 21
2019-09-28 10:00:00 22.7 10 Este 13 Este 0 945.5 0.9 28
2019-09-28 09:00:00 17.5 6 Este 8 Este 0 945.1 0.6 59
2019-09-28 08:00:00 15.6 3 Nordeste 9 Norte 0 944.7 0.2 69
2019-09-28 07:00:00 16.7 6 Norte 10 Norte 0 944.6 -0.2 62
2019-09-28 06:00:00 16.8 2 Sudoeste 5 Sudoeste 0 944.5 -0.5 61
2019-09-28 05:00:00 17.4 3 Sudoeste 6 Oeste 0 944.5 -0.8 54
2019-09-28 04:00:00 17.9 3 Oeste 10 Noroeste 0 944.8 -0.8 49
2019-09-28 03:00:00 18.5 4 Oeste 12 Noroeste 0 945 -0.5 46
2019-09-28 02:00:00 18.9 3 Oeste 9 Noroeste 0 945.3 0.1 42
2019-09-28 01:00:00 19.9 4 Noroeste 10 Noroeste 0 945.6 0.6 33
2019-09-28 00:00:00 20.8 3 Noroeste 10 Noroeste 0 945.5 1.1 32
2019-09-27 23:00:00 21.7 2 Norte 5 Noroeste 0 945.2 1.1 29
2019-09-27 22:00:00 22.3 3 Este 12 Norte 0 945 1 30
2019-09-27 21:00:00 24.2 5 Norte 17 Norte 0 944.4 0.3 28
2019-09-27 20:00:00 26.5 10 Norte 20 Norte 0 944.1 -0.1 28
2019-09-27 19:00:00 28.2 12 Norte 23 Norte 0 944 -0.2 25
2019-09-27 18:00:00 29.1 12 Norte 24 Norte 0 944.1 -0.6 24
2019-09-27 17:00:00 29.5 14 Norte 31 Noroeste 0 944.2 -1.1 23
2019-09-27 16:00:00 29.9 9 Noroeste 24 Norte 0 944.2 -1.2 22
2019-09-27 15:00:00 29.8 10 Noroeste 26 Noroeste 0 944.7 -1 22
2019-09-27 14:00:00 28.6 6 Nordeste 14 Nordeste 0 945.3 -0.3 24
2019-09-27 13:00:00 27.9 5 Noroeste 13 Noroeste 0 945.4 0.2 26
2019-09-27 12:00:00 26.6 5 Norte 9 Norte 0 945.7 0.7 29
2019-09-27 11:00:00 25 4 Este 8 Este 0 945.6 0.8 32
2019-09-27 10:00:00 22.8 2 Sur 6 Noroeste 0 945.2 0.6 40
2019-09-27 09:00:00 18.3 4 Noroeste 6 Sudoeste 0 945 0.4 53
2019-09-27 08:00:00 16.7 3 Oeste 7 Noroeste 0 944.8 0.1 57
2019-09-27 07:00:00 17.4 2 Noroeste 6 Sudoeste 0 944.6 -0.3 54
2019-09-27 06:00:00 17.1 3 Oeste 6 Sudoeste 0 944.6 -0.5 55
2019-09-27 05:00:00 17.6 3 Oeste 5 Oeste 0 944.7 -0.4 53
2019-09-27 04:00:00 18 3 Oeste 6 Noroeste 0 944.9 -0.3 51
2019-09-27 03:00:00 18.3 4 Oeste 10 Noroeste 0 945.1 -0.2 49
2019-09-27 02:00:00 19.5 7 Norte 22 Norte 0 945.1 0.1 43
2019-09-27 01:00:00 20.5 2 Oeste 5 Sur 0 945.2 0.5 40
2019-09-27 00:00:00 20.4 0 Calma 9 Noroeste 0 945.3 1.3 41
2019-09-26 23:00:00 20.8 6 Noroeste 12 Noroeste 0 945 1.1 40
2019-09-26 22:00:00 22 6 Noroeste 11 Norte 0 944.7 1.1 35
2019-09-26 21:00:00 24 7 Noroeste 13 Noroeste 0 944 0.5 30
2019-09-26 20:00:00 26.8 7 Norte 19 Norte 0 943.9 0.1 25
2019-09-26 19:00:00 29 8 Norte 21 Noroeste 0 943.6 -0.5 22
2019-09-26 18:00:00 30.2 8 Noroeste 17 Sudoeste 0 943.5 -1 21
2019-09-26 17:00:00 30 9 Oeste 19 Noroeste 0 943.8 -1.2 21
2019-09-26 16:00:00 30 8 Sudoeste 21 Noroeste 0 944.1 -1.4 21
2019-09-26 15:00:00 28.7 12 Norte 22 Noroeste 0 944.5 -1.1 22
2019-09-26 14:00:00 27.5 6 Noroeste 15 Norte 0 945 -0.4 24
2019-09-26 13:00:00 26.6 7 Oeste 14 Noroeste 0 945.5 0.7 29
2019-09-26 12:00:00 24.8 5 Norte 12 Este 0 945.6 1.1 32
2019-09-26 11:00:00 22.7 6 Nordeste 10 Nordeste 0 945.4 1.3 38
2019-09-26 10:00:00 20.7 4 Este 6 Este 0 944.8 1 49
2019-09-26 09:00:00 16.2 4 Sudeste 5 Sudeste 0 944.5 0.8 68
2019-09-26 08:00:00 14.8 4 Sudeste 5 Sudeste 0 944.1 0.3 68
2019-09-26 07:00:00 14.8 4 Norte 5 Norte 0 943.8 0 70
2019-09-26 06:00:00 15 0 Calma 4 Este 0 943.7 -0.3 71
2019-09-26 05:00:00 14.5 2 Sur 5 Oeste 0 943.8 -0.4 69
2019-09-26 04:00:00 14.9 4 Oeste 9 Noroeste 0 943.8 -0.7 67
2019-09-26 03:00:00 15.4 4 Oeste 11 Norte 0 944 -0.4 63
2019-09-26 02:00:00 16.2 4 Noroeste 12 Norte 0 944.2 -0.1 60
2019-09-26 01:00:00 16.8 4 Noroeste 10 Noroeste 0 944.5 0.5 52
2019-09-26 00:00:00 17.8 4 Oeste 11 Noroeste 0 944.4 0.6 47
2019-09-25 23:00:00 18.4 6 Noroeste 12 Noroeste 0 944.3 0.7 44
2019-09-25 22:00:00 19.1 6 Noroeste 10 Noroeste 0 944 0.5 41
2019-09-25 21:00:00 20.3 4 Oeste 18 Norte 0 943.8 0.3 37
2019-09-25 20:00:00 22.7 12 Norte 23 Noroeste 0 943.6 0.1 32
2019-09-25 19:00:00 24.3 14 Norte 27 Noroeste 0 943.5 -0.5 29
2019-09-25 18:00:00 25.2 14 Noroeste 27 Noroeste 0 943.5 -1 29
2019-09-25 17:00:00 25.3 14 Noroeste 27 Norte 0 943.5 -1.3 29
2019-09-25 16:00:00 24.5 15 Noroeste 30 Norte 0 944 -1.1 31
2019-09-25 15:00:00 23.4 14 Norte 27 Norte 0 944.5 -0.7 33
2019-09-25 14:00:00 22.6 14 Noroeste 28 Noroeste 0 944.8 -0.2 37
2019-09-25 13:00:00 21.4 13 Noroeste 22 Norte 0 945.1 0.4 39
2019-09-25 12:00:00 19.5 15 Norte 26 Norte 0 945.2 1 52
2019-09-25 11:00:00 17 10 Norte 21 Norte 0 945 1.1 68
2019-09-25 10:00:00 15.1 12 Noroeste 23 Noroeste 0 944.7 1 81
2019-09-25 09:00:00 12.9 12 Noroeste 21 Noroeste 0 944.2 0.4 90
2019-09-25 08:00:00 12.7 10 Noroeste 24 Noroeste 0 943.9 -0.2 90
2019-09-25 07:00:00 13 8 Noroeste 22 Noroeste 0 943.7 -0.9 89
2019-09-25 06:00:00 14.1 14 Noroeste -- -- 0 943.8 -1.1 82
2019-09-25 05:00:00 14.6 12 Noroeste 18 Noroeste 0 944.1 -0.9 85
2019-09-25 04:00:00 15.4 8 Noroeste 20 Noroeste 0 944.6 -0.7 84
2019-09-25 03:00:00 17.3 15 Noroeste 24 Noroeste 0 944.9 -0.4 80
2019-09-25 02:00:00 18.3 16 Noroeste 32 Noroeste 0 945 -0.2 80
2019-09-25 01:00:00 18.8 16 Noroeste 28 Noroeste 0 945.3 0.3 84
2019-09-25 00:00:00 19.7 16 Noroeste 26 Noroeste 0 945.3 0.6 84
2019-09-24 23:00:00 20.1 12 Noroeste 27 Noroeste 0 945.2 0.7 75
2019-09-24 22:00:00 21.3 17 Noroeste 25 Noroeste 0 945 0.7 69
2019-09-24 21:00:00 22.5 18 Noroeste 27 Noroeste 0 944.7 0.5 63
2019-09-24 20:00:00 24.3 19 Noroeste 30 Noroeste 0 944.5 0 53
2019-09-24 19:00:00 26.8 21 Noroeste 32 Noroeste 0 944.3 -0.7 40
2019-09-24 18:00:00 29.4 13 Oeste 28 Oeste 0 944.2 -1.3 23
2019-09-24 17:00:00 30 11 Oeste 25 Noroeste 0 944.5 -1.9 21
2019-09-24 16:00:00 29.4 13 Noroeste 25 Norte 0 945 -1.7 21
2019-09-24 15:00:00 28.4 11 Noroeste 22 Noroeste 0 945.5 -1.5 20
2019-09-24 14:00:00 26.4 13 Noroeste 25 Noroeste 0 946.4 -0.6 28
2019-09-24 13:00:00 25.4 8 Noroeste 15 Oeste 0 946.7 0.1 34
2019-09-24 12:00:00 23.7 3 Este 10 Norte 0 947 0.6 40
2019-09-24 11:00:00 20.7 5 Norte 9 Noroeste 0 947 0.9 51
2019-09-24 10:00:00 18 2 Norte 11 Noroeste 0 946.6 0.8 66
2019-09-24 09:00:00 15 5 Noroeste 12 Noroeste 0 946.4 0.8 80
2019-09-24 08:00:00 14.4 5 Noroeste 11 Noroeste 0 946.1 0.4 81
2019-09-24 07:00:00 14.7 4 Oeste 11 Noroeste 0 945.8 -0.2 72
2019-09-24 06:00:00 15.3 9 Noroeste 13 Noroeste 0 945.6 -0.5 70
2019-09-24 05:00:00 15.9 4 Oeste 8 Noroeste 0 945.7 -0.6 58
2019-09-24 04:00:00 16.7 4 Noroeste 8 Noroeste 0 946 -0.5 51
2019-09-24 03:00:00 17 0 Calma 5 Sudeste 0 946.1 -0.6 47
2019-09-24 02:00:00 17 3 Sudeste 9 Sudeste 0 946.3 -0.2 50
2019-09-24 01:00:00 16.9 4 Sudeste 6 Sudeste 0 946.5 0.2 49
2019-09-24 00:00:00 17.9 2 Sudeste 9 Noroeste 0 946.7 0.9 44
2019-09-23 23:00:00 18.9 2 Nordeste 9 Norte 0 946.5 0.9 41
2019-09-23 22:00:00 20 2 Norte 11 Norte 0 946.3 0.8 39
2019-09-23 21:00:00 21.8 5 Norte 11 Norte 0 945.8 0.4 33
2019-09-23 20:00:00 24.1 6 Norte 14 Norte 0 945.6 0.1 27
2019-09-23 19:00:00 25.3 5 Norte 16 Noroeste 0 945.5 -0.4 23
2019-09-23 18:00:00 25.9 5 Este 15 Noroeste 0 945.4 -0.7 24
2019-09-23 17:00:00 25.8 5 Norte 16 Noroeste 0 945.5 -1 25
2019-09-23 16:00:00 24.9 7 Noroeste 13 Norte 0 945.9 -0.8 27
2019-09-23 15:00:00 24.3 4 Sudeste 13 Nordeste 0 946.1 -0.6 32
2019-09-23 14:00:00 22.7 8 Norte 13 Sudeste 0 946.5 -0.3 36
2019-09-23 13:00:00 22 6 Sudeste 14 Este 0 946.7 0.1 45
2019-09-23 12:00:00 19.8 10 Este 15 Sudeste 0 946.7 0.8 54
2019-09-23 11:00:00 17.7 8 Este 12 Este 0 946.8 1.4 63
2019-09-23 10:00:00 15.6 3 Nordeste 7 Norte 0 946.6 1.5 73
2019-09-23 09:00:00 13.3 2 Nordeste 5 Noroeste 0 945.9 1 82
2019-09-23 08:00:00 12.1 2 Nordeste 5 Este 0 945.4 0.8 85
2019-09-23 07:00:00 12.2 0 Calma 4 Sudeste 0 945.1 0.4 83
2019-09-23 06:00:00 12.5 2 Oeste 8 Noroeste 0 944.9 0.3 81
2019-09-23 05:00:00 12.9 6 Noroeste 10 Noroeste 0 944.6 0.1 78
2019-09-23 04:00:00 13.4 5 Noroeste 9 Noroeste 0 944.7 -0.3 75
2019-09-23 03:00:00 14 4 Noroeste 8 Noroeste 0 944.6 -0.2 72
2019-09-23 02:00:00 14.5 5 Oeste 10 Oeste 0 944.5 0 72
2019-09-23 01:00:00 15.1 6 Oeste 9 Oeste 0 945 0.9 72
2019-09-23 00:00:00 15.6 6 Noroeste 14 Noroeste 0 944.8 1.2 71
2019-09-22 23:00:00 16.4 10 Oeste 14 Noroeste 0 944.5 1.4 67
2019-09-22 22:00:00 17.4 7 Oeste 11 Sudoeste 0 944.1 1.4 66
2019-09-22 21:00:00 17.8 6 Noroeste 13 Noroeste 0 943.6 1.1 62
2019-09-22 20:00:00 19.1 9 Noroeste 20 Noroeste 0 943.1 0.4 53
2019-09-22 19:00:00 20.8 12 Noroeste 22 Noroeste 0 942.7 0.2 48
2019-09-22 18:00:00 20.5 15 Noroeste 26 Oeste 0 942.5 -0.1 51
2019-09-22 17:00:00 20.3 16 Noroeste 27 Norte 0 942.7 0 55
2019-09-22 16:00:00 21.7 16 Noroeste 28 Noroeste 0 942.5 0 48
2019-09-22 15:00:00 20.9 13 Noroeste 25 Noroeste 0 942.6 0.1 53
2019-09-22 14:00:00 19.7 13 Noroeste 26 Norte 0 942.7 0.5 61
2019-09-22 13:00:00 18.1 12 Noroeste 19 Noroeste 0 942.5 0.8 70
2019-09-22 12:00:00 16.7 10 Norte 19 Noroeste 0 942.5 1.4 77
2019-09-22 11:00:00 15.4 12 Norte 18 Norte 0 942.2 1.7 85
2019-09-22 10:00:00 14.6 9 Norte 16 Norte 0 941.7 2 87
2019-09-22 09:00:00 13.3 8 Noroeste 19 Noroeste 0 941.1 1.9 91
2019-09-22 08:00:00 13.9 8 Noroeste 20 Norte 0.4 940.5 1.4 93
2019-09-22 07:00:00 15.1 10 Noroeste 28 Oeste 0.6 939.7 0.3 92
2019-09-22 06:00:00 16.6 12 Sudoeste 23 Sudoeste 1.4 939.2 -0.1 94
2019-09-22 05:00:00 16.7 16 Sudoeste 34 Sur 0 939.1 -0.2 93
2019-09-22 04:00:00 16.9 24 Sur 34 Sur 0.2 939.4 0.1 90
2019-09-22 03:00:00 17.1 22 Sur 37 Sur 0.2 939.3 -0.1 88
2019-09-22 02:00:00 16.9 25 Sur 42 Sudoeste 1.6 939.3 -0.4 91
2019-09-22 01:00:00 17.6 30 Sudoeste 41 Sudoeste 0 939.3 0.4 85
2019-09-22 00:00:00 18 24 Sudoeste 34 Sudoeste 0 939.4 0.4 86
2019-09-21 23:00:00 18.1 17 Sudoeste 41 Sur 0 939.7 0.8 86
2019-09-21 22:00:00 18.1 30 Sudoeste 40 Sur 0 938.9 0.1 85
2019-09-21 21:00:00 18.9 18 Sudoeste 36 Sudoeste 0 939 0 78
2019-09-21 20:00:00 19.6 20 Sudoeste 31 Sudoeste 0 938.9 -0.2 73
2019-09-21 19:00:00 20.3 18 Sur 32 Sudoeste 0 938.8 -0.7 73
2019-09-21 18:00:00 19.9 19 Sur 34 Sudoeste 0 939 -0.4 75
2019-09-21 17:00:00 20.7 22 Sur 33 Sudoeste 0 939.1 -0.4 74
2019-09-21 16:00:00 18.9 15 Sudoeste 34 Sudoeste 0 939.5 -0.5 81
2019-09-21 15:00:00 18.4 20 Sudoeste 36 Sudoeste 0.2 939.4 -0.9 82
2019-09-21 14:00:00 19 27 Sudoeste 35 Sudoeste 0 939.5 -0.5 74
2019-09-21 13:00:00 19.2 20 Sudoeste 34 Sur 0 940 0.8 70
2019-09-21 12:00:00 18.3 21 Sudoeste 28 Sudoeste 0 940.3 1.9 67
2019-09-21 11:00:00 17.1 23 Sur 37 Sur 0 940 1.2 72
2019-09-21 10:00:00 16.5 27 Sur 40 Sur 0 939.2 0.8 73
2019-09-21 09:00:00 16.1 31 Sur 39 Sur 0 938.4 -0.2 80
2019-09-21 08:00:00 17 21 Sur 36 Sur 0 938.8 -0.1 73
2019-09-21 07:00:00 17.1 28 Sur 34 Sur 0 938.4 -0.9 72
2019-09-21 06:00:00 17.1 23 Sur 34 Sur 0 938.6 -1 73
2019-09-21 05:00:00 17.3 22 Sur 37 Sur 0 938.9 -1 78
2019-09-21 04:00:00 17.6 23 Sur 36 Sur 0 939.3 -0.8 78
2019-09-21 03:00:00 17.5 21 Sur 30 Sur 0 939.6 -0.8 75
2019-09-21 02:00:00 17.9 21 Sur 36 Sur 0 939.9 -0.5 71
2019-09-21 01:00:00 18 21 Sur 32 Sudoeste 0 940.1 0.2 72
2019-09-21 00:00:00 17.9 18 Sur 24 Sur 0 940.4 1 76
2019-09-20 23:00:00 17.9 10 Sudoeste 16 Sudoeste 0 940.4 1.2 73
2019-09-20 22:00:00 18.6 11 Sudoeste 18 Sudoeste 0 939.9 -0.1 70
2019-09-20 21:00:00 18.9 15 Sur 26 Sur 0 939.4 -0.3 70
2019-09-20 20:00:00 19.9 21 Sur 28 Sur 0 939.2 -0.8 68
2019-09-20 19:00:00 20.7 21 Sudoeste 30 Sudoeste 0 940 0 60
2019-09-20 18:00:00 21.7 20 Sur 33 Sudoeste 0 939.7 -0.6 56
2019-09-20 17:00:00 23.2 24 Sudoeste 39 Sudoeste 0 940 -0.7 50
2019-09-20 16:00:00 23.6 22 Sur 34 Sudoeste 0 940 -0.9 49
2019-09-20 15:00:00 23.2 18 Sur 29 Sudoeste 0 940.3 -1.1 54
2019-09-20 14:00:00 22.6 17 Sur 32 Sudoeste 0 940.7 -0.4 56
2019-09-20 13:00:00 22.2 18 Sudoeste 26 Sudoeste 0 940.9 0 60
2019-09-20 12:00:00 20.1 13 Sur 26 Sudoeste 0 941.4 1 64
2019-09-20 11:00:00 19.7 10 Sur 32 Sur 0 941.1 0.9 61
2019-09-20 10:00:00 19 14 Sur 27 Sur 0 940.9 0.7 58
2019-09-20 09:00:00 18.4 9 Sur 19 Sur 0 940.4 0.2 56
2019-09-20 08:00:00 18.2 10 Sur 23 Sur 0 940.2 -0.3 56
2019-09-20 07:00:00 18.6 17 Sur 26 Sur 0 940.2 -0.5 53
2019-09-20 06:00:00 18.3 13 Sur 18 Sur 0 940.2 -0.9 53
2019-09-20 05:00:00 18.9 9 Sur 19 Sur 0 940.5 -0.8 53
2019-09-20 04:00:00 18.4 10 Sur 15 Sur 0 940.7 -0.7 55
2019-09-20 03:00:00 19.7 12 Sur 23 Sur 0 941.1 -0.5 48
2019-09-20 02:00:00 19.8 7 Sur 11 Sur 0 941.3 -0.2 52
2019-09-20 01:00:00 20.4 8 Sudoeste 18 Sudoeste 0 941.4 0.3 51
2019-09-20 00:00:00 21 18 Sudoeste 28 Sur 0 941.6 0.7 49
2019-09-19 23:00:00 21.8 20 Sur 29 Sur 0 941.5 1 47
2019-09-19 22:00:00 22.6 24 Sur 31 Sur 0 941.1 0.6 42
2019-09-19 21:00:00 23.7 17 Sur 24 Sur 0 940.9 0.3 31
2019-09-19 20:00:00 25.3 15 Sur 24 Sur 0 940.5 -0.4 28
2019-09-19 19:00:00 27.2 16 Sur 25 Sudoeste 0 940.5 -0.6 26
2019-09-19 18:00:00 28.8 9 Sur 23 Sudoeste 0 940.6 -1.1 19
2019-09-19 17:00:00 29.2 15 Sur 29 Sudoeste 0 940.9 -1.4 19
2019-09-19 16:00:00 29.5 10 Sur -- -- 0 941.1 -1.6 20
2019-09-19 15:00:00 28.5 17 Sudoeste 27 Sudoeste 0 941.7 -1.2 24
2019-09-19 14:00:00 27.7 12 Sudeste 29 Sur 0 942.3 -0.6 27
2019-09-19 13:00:00 27.1 15 Sur 23 Sudoeste 0 942.7 0.2 33
2019-09-19 12:00:00 25 5 Este 12 Este 0 942.9 0.6 42
2019-09-19 11:00:00 22.4 6 Nordeste 12 Nordeste 0 942.9 0.8 52
2019-09-19 10:00:00 20.9 3 Nordeste 5 Nordeste 0 942.5 0.7 59
2019-09-19 09:00:00 17.6 0 Calma 5 Oeste 0 942.3 0.4 74
2019-09-19 08:00:00 16.1 4 Sudoeste 5 Sudoeste 0 942.1 0 78
2019-09-19 07:00:00 15.6 4 Sur 5 Sudeste 0 941.8 -0.4 78
2019-09-19 06:00:00 15.8 3 Sudeste 5 Sudeste 0 941.9 -0.7 73
2019-09-19 05:00:00 16.2 2 Oeste 7 Oeste 0 942.1 -0.6 69
2019-09-19 04:00:00 17.2 3 Sudoeste 8 Sudoeste 0 942.2 -0.5 65
2019-09-19 03:00:00 17.2 6 Sudoeste 12 Oeste 0 942.6 -0.1 64
2019-09-19 02:00:00 18.2 9 Oeste 15 Sudoeste 0 942.7 0.1 59
2019-09-19 01:00:00 19.7 9 Sudoeste 15 Sudoeste 0 942.7 0.5 53
2019-09-19 00:00:00 20.1 10 Sudoeste 19 Sudoeste 0 942.7 1.1 51
2019-09-18 23:00:00 21.9 16 Sudoeste 24 Sudoeste 0 942.6 1.1 46
2019-09-18 22:00:00 23.1 14 Sudoeste 22 Sudoeste 0 942.2 1 39
2019-09-18 21:00:00 23.9 14 Sudoeste 20 Sur 0 941.6 0.3 34
2019-09-18 20:00:00 25.7 13 Sur 20 Sur 0 941.5 0.1 30
2019-09-18 19:00:00 27.2 11 Sudoeste 16 Oeste 0 941.2 -0.5 26
2019-09-18 18:00:00 28 9 Sur -- -- 0 941.3 -0.9 25
2019-09-18 17:00:00 28.5 9 Sur 19 Oeste 0 941.4 -1.1 28
2019-09-18 16:00:00 28.7 7 Sur 21 Oeste 0 941.7 -1.1 29
2019-09-18 15:00:00 27.6 10 Sur 23 Sudoeste 0 942.2 -0.5 35
2019-09-18 14:00:00 26.7 14 Sudoeste 25 Sudoeste 0 942.5 0.2 38
2019-09-18 13:00:00 25.8 14 Sur 28 Sudeste 0 942.8 0.7 47
2019-09-18 12:00:00 24.5 12 Sur 32 Sur 0 942.7 1.2 50
2019-09-18 11:00:00 22.2 23 Sur 31 Sur 0 942.3 1.4 60
2019-09-18 10:00:00 20.5 17 Sur 24 Sudoeste 0 942.1 1.5 65
2019-09-18 09:00:00 19 18 Sur 26 Sur 0 941.5 0.7 69
2019-09-18 08:00:00 18.9 19 Sur 28 Sur 0 940.9 0.2 69
2019-09-18 07:00:00 19.3 22 Sur 32 Sur 0 940.6 -0.3 70
2019-09-18 06:00:00 19.4 12 Sur 25 Sudoeste 0 940.8 -0.4 71
2019-09-18 05:00:00 19.8 21 Sur 31 Sur 0 940.7 -0.8 74
2019-09-18 04:00:00 20.1 14 Sur 21 Sur 0 940.9 -0.8 70
2019-09-18 03:00:00 19.9 15 Sudoeste 21 Sudoeste 0 941.2 -0.7 69
2019-09-18 02:00:00 19.9 13 Sudoeste 17 Sudoeste 0 941.5 0 70
2019-09-18 01:00:00 20.5 11 Sudoeste 16 Sudoeste 0 941.7 1.2 65
2019-09-18 00:00:00 21.2 10 Sudoeste 19 Sudoeste 0 941.9 1.7 61
2019-09-17 23:00:00 22.3 15 Sudoeste 30 Sur 0 941.5 1.5 51
2019-09-17 22:00:00 23.5 22 Sur 30 Sur 0 940.5 0.3 46
2019-09-17 21:00:00 24.2 21 Sur 28 Sur 0 940.2 0 44
2019-09-15 18:00:00 26.3 10 Oeste 26 Oeste 0 943.1 -0.8 34
2019-09-15 17:00:00 26.5 16 Noroeste 28 Noroeste 0 943.1 -1.3 35
2019-09-15 16:00:00 26.3 15 Oeste 22 Oeste 0 943.5 -1.4 37
2019-09-15 15:00:00 27.4 12 Sudoeste 21 Oeste 0 943.9 -1 35
2019-09-15 14:00:00 25.1 12 Oeste 22 Noroeste 0 944.4 -0.4 42
2019-09-15 13:00:00 25.4 4 Este 18 Noroeste 0 944.9 0.6 44
2019-09-15 12:00:00 24.3 4 Nordeste 9 Nordeste 0 944.9 1 48
2019-09-15 11:00:00 22.5 4 Norte 11 Sudeste 0 944.8 0.9 57
2019-09-15 10:00:00 21 4 Sudoeste 6 Sudoeste 0 944.3 0.5 64
2019-09-15 09:00:00 17.4 4 Sudoeste 8 Sudoeste 0 943.9 0 75
2019-09-15 08:00:00 16.3 3 Noroeste 6 Este 0 943.9 0 81
2019-09-15 07:00:00 15.4 6 Sudeste 9 Este 0 943.8 -0.2 88
2019-09-15 06:00:00 16 6 Este 8 Este 0 943.9 -0.3 86
2019-09-15 05:00:00 16.7 2 Este 6 Sudeste 0 943.9 -0.7 82
2019-09-15 04:00:00 16.9 4 Noroeste 7 Sudeste 0 944 -0.8 80
2019-09-15 03:00:00 17.3 3 Oeste 5 Este 0 944.2 -0.8 79
2019-09-15 02:00:00 18.1 2 Norte 10 Sudeste 0 944.6 -0.4 76
2019-09-15 01:00:00 18 9 Sudeste 12 Este 0 944.8 0.2 78
2019-09-15 00:00:00 19 10 Este 13 Este 0 945 1 75
2019-09-14 23:00:00 19.7 6 Este 11 Este 0 945 1.1 71
2019-09-14 22:00:00 19.9 8 Sudeste 15 Sudeste 0 944.6 0.8 67
2019-09-14 21:00:00 20.2 9 Este 12 Este 0 944 0.2 63
2019-09-14 20:00:00 20.7 10 Este 17 Este 0 943.9 0.3 63
2019-09-14 19:00:00 21.4 9 Este 20 Sudeste 0 943.8 0.3 60
2019-09-14 18:00:00 21.3 18 Este 33 Sudeste 0 943.8 -0.5 60
2019-09-14 17:00:00 23 25 Sudeste 36 Sudeste 0 943.6 -1.3 54
2019-09-14 16:00:00 24.7 17 Este 29 Este 0 943.5 -2 44
2019-09-14 15:00:00 25.3 18 Sudeste 26 Este 0 944.3 -1.3 42
2019-09-14 14:00:00 23.7 15 Este 27 Sudeste 0 944.9 -0.8 45
2019-09-14 13:00:00 22.1 12 Este 21 Este 0 945.5 -0.1 62
2019-09-14 12:00:00 20.9 11 Este 24 Este 0 945.6 0.7 68
2019-09-14 11:00:00 19.9 14 Este 20 Sudeste 0 945.7 1.1 72
2019-09-14 10:00:00 17.4 9 Este 14 Sudeste 0 945.6 1.2 82
2019-09-14 09:00:00 16.7 6 Este 18 Sudeste 0 944.9 0.5 84
2019-09-14 08:00:00 15.3 12 Este 18 Este 0 944.6 -0.1 90
2019-09-14 07:00:00 15.1 9 Este 15 Este 0 944.4 -0.7 87
2019-09-14 06:00:00 14.7 10 Este 14 Este 0 944.4 -1.2 87
2019-09-14 05:00:00 15.2 11 Este 17 Este 0 944.7 -1.5 83
2019-09-14 04:00:00 15.1 8 Este 17 Este 0 945.1 -1.4 83
2019-09-14 03:00:00 15.1 13 Este 17 Este 0 945.6 -0.9 86
2019-09-14 02:00:00 15.8 10 Este 19 Sudeste 0 946.2 0 84
2019-09-14 01:00:00 15.8 11 Este 16 Este 0 946.5 -0.1 82
2019-09-14 00:00:00 15.6 9 Este 18 Nordeste 0 946.5 0.5 88